Share

Washington, KS (66968)

Crystal Springs Campground (KNEFAIRB2) Elev 1424 ft | 40.13 °N, 97.21 °W | Change Station

Current weather conditions updated 1 second ago

Clear
Clear
60.8 °F
Feels Like 60.8 °F
N
17.0
Wind Variable Wind from SSW
Gusts 21.0 mph
Sunrise 6:43 AM
Sunset 8:11 PM
Moon Waning Gibbous

Today is forecast to be nearly the same temperature as yesterday. Scattered thunderstorms tonight.

Pressure 29.97 in
Visibility 10.0 miles
Clouds Clear
Dew Point 51 °F
Humidity 71%
Rainfall 0.00 in
Snow Depth Not available.
UV 0 out of 16
Pollen 8.00 out of 12
Air Quality Not available.
Flu Activity No Activity
METAR KHJH 201055Z AUTO 19011KT 10SM CLR 16/10 A2997 RMK AO2 T01560096

More Conditions Fewer Conditions

Pressure 29.97 in
Visibility 10.0 miles
Clouds Clear
Dew Point 51 °F
Humidity 71%
Rainfall 0.00 in
Snow Depth Not available.
UV 0 out of 16
Pollen 8.00 out of 12
Air Quality Not available.
Flu Activity No Activity
METAR KHJH 201055Z AUTO 19011KT 10SM CLR 16/10 A2997 RMK AO2 T01560096

More Conditions Fewer Conditions

10-Day Weather Forecast

Almanac

Astronomy

Apr. 20, 2014 Rise Set
Actual Time 6:43 AM CDT 8:11 PM CDT
Civil Twilight 6:14 AM CDT 8:39 PM CDT
Nautical Twilight 5:40 AM CDT 9:14 PM CDT
Astronomical Twilight 5:05 AM CDT 9:50 PM CDT
Moon 12:52 AM CDT 11:05 AM CDT
Length of Visible Light 14h 24m
Length of Day
13h 28m
Tomorrow will be 2m 26s longer.
Waning Gibbous, 71% of the Moon is Illuminated
Today
Waning Gibbous
Apr 22
Last Quarter
Apr 29
New
May 6
First Quarter
May 14
Full

Today's Extremes

State Highs State Lows

Community

  • Easter Greetings
    Easter Greetings
  • Sunny day at the coast-Cape Arago Lighthouse
    Sunny day at the coast-Cape Arago Lighthouse
  • Cherry Blossoms
    Cherry Blossoms
  • White-Crowned Sparrow
    White-Crowned Sparrow
  • New Day
    New Day

WunderPhotos

Upload Photos

1,703,140 photos uploaded!

Nearby

Snow Depth

Station Depth Elevation
No new snow has been reported.

Coastal Water Temperatures

Place Temperature
No Stations Reporting

Earthquake Activity

City Distance Mag. Time & Date
No recent earthquake activity has been reported nearby.
Minimum magnitude displayed is 2.5.

Nearby Weather Stations

Station Location Temp. Dew Point Humidity Wind Precip. Elev Updated Type
MesoWest BREME1 , Hanover, KS 61 °F - - North  at  - 0.00 in / hr 1318 ft 5:00 AM CDT MADIS
MesoWest STEEL1 , Steele City, NE 62 °F - - North  at  - 0.00 in / hr 1275 ft 5:00 AM CDT MADIS
Crystal Springs Campground, Fairbury, NE 60.8 °F 51 °F 71% SSW  at  17.0 mph 0.00 in / hr 1424 ft 6:18 AM CDT Rapid Fire
MesoWest FAIRB2 , Fairbury, NE 62 °F - - North  at  - 0.00 in / hr 1321 ft 5:00 AM CDT MADIS

Show More Stations Show Fewer Stations

What do you think?

We're not finished. Please let us know what you like, what you don't like, and what you are still missing.